createdAt,value
2019-04-05T00:00:52.225Z,74.22
2019-04-05T00:01:52.272Z,73.91
2019-04-05T00:02:52.189Z,73.91
2019-04-05T00:03:52.277Z,73.36
2019-04-05T00:04:52.166Z,73.19
2019-04-05T00:05:52.156Z,73.29
2019-04-05T00:06:52.156Z,73.60
2019-04-05T00:07:52.139Z,73.91
2019-04-05T00:08:52.166Z,73.91
2019-04-05T00:09:52.115Z,73.91
2019-04-05T00:10:52.115Z,74.32
2019-04-05T00:11:52.100Z,73.71
2019-04-05T00:12:52.092Z,73.91
2019-04-05T00:13:52.113Z,73.91
2019-04-05T00:14:52.064Z,73.60
2019-04-05T00:15:52.052Z,73.39
2019-04-05T00:16:52.043Z,73.50
2019-04-05T00:17:52.033Z,73.81
2019-04-05T00:18:52.060Z,73.81
2019-04-05T00:19:52.045Z,74.22
2019-04-05T00:20:51.997Z,73.91
2019-04-05T00:21:51.994Z,73.91
2019-04-05T00:22:52.005Z,73.81
2019-04-05T00:23:51.994Z,74.12
2019-04-05T00:24:52.006Z,73.71
2019-04-05T00:25:51.947Z,73.81
2019-04-05T00:26:51.973Z,73.60
2019-04-05T00:27:51.957Z,73.60
2019-04-05T00:28:51.996Z,74.02
2019-04-05T00:29:51.931Z,73.91
2019-04-05T00:30:51.960Z,73.71
2019-04-05T00:31:51.913Z,73.46
2019-04-05T00:32:51.865Z,73.71
2019-04-05T00:33:51.869Z,73.71
2019-04-05T00:34:51.937Z,73.91
2019-04-05T00:35:51.854Z,73.91
2019-04-05T00:36:51.823Z,73.81
2019-04-05T00:37:51.853Z,73.81
2019-04-05T00:38:51.833Z,73.77
2019-04-05T00:39:51.793Z,73.81
2019-04-05T00:40:51.774Z,74.02
2019-04-05T00:41:51.786Z,74.32
2019-04-05T00:42:51.793Z,74.22
2019-04-05T00:43:51.763Z,74.02
2019-04-05T00:44:51.745Z,74.22
2019-04-05T00:45:51.752Z,74.63
2019-04-05T00:46:51.712Z,74.32
2019-04-05T00:47:51.707Z,74.53
2019-04-05T00:48:51.711Z,74.74
2019-04-05T00:49:51.747Z,74.95
2019-04-05T00:50:51.675Z,74.77
2019-04-05T00:51:51.661Z,74.98
2019-04-05T00:52:51.651Z,74.98
2019-04-05T00:53:51.677Z,74.88
2019-04-05T00:54:51.692Z,74.98
2019-04-05T00:55:51.621Z,75.40
2019-04-05T00:56:51.715Z,75.40
2019-04-05T00:57:51.602Z,75.50
2019-04-05T00:58:51.581Z,75.60
2019-04-05T00:59:51.572Z,75.40
2019-04-05T01:00:51.596Z,75.40
2019-04-05T01:01:51.582Z,75.40
2019-04-05T01:02:51.553Z,75.40
2019-04-05T01:03:51.554Z,75.19
2019-04-05T01:04:51.524Z,74.98
2019-04-05T01:05:51.501Z,75.09
2019-04-05T01:06:51.560Z,75.19
2019-04-05T01:07:51.489Z,75.50
2019-04-05T01:08:51.541Z,75.29
2019-04-05T01:09:51.462Z,75.09
2019-04-05T01:10:51.469Z,75.09
2019-04-05T01:11:51.485Z,74.98
2019-04-05T01:12:51.430Z,74.95
2019-04-05T01:13:51.464Z,74.74
2019-04-05T01:14:51.423Z,74.84
2019-04-05T01:15:51.401Z,74.63
2019-04-05T01:16:51.420Z,74.63
2019-04-05T01:17:51.384Z,74.53
2019-04-05T01:18:51.400Z,74.74
2019-04-05T01:19:51.357Z,74.95
2019-04-05T01:20:51.350Z,74.74
2019-04-05T01:21:51.369Z,74.53
2019-04-05T01:22:51.353Z,74.74
2019-04-05T01:23:51.310Z,74.63
2019-04-05T01:24:51.339Z,74.63
2019-04-05T01:25:51.288Z,75.05
2019-04-05T01:26:51.318Z,74.63
2019-04-05T01:27:51.276Z,74.63
2019-04-05T01:28:51.260Z,74.63
2019-04-05T01:29:51.250Z,74.67
2019-04-05T01:30:51.239Z,74.98
2019-04-05T01:31:51.259Z,74.77
2019-04-05T01:32:51.261Z,74.88
2019-04-05T01:33:51.205Z,75.19
2019-04-05T01:34:51.238Z,75.29
2019-04-05T01:35:51.227Z,75.29
2019-04-05T01:36:51.265Z,75.40
2019-04-05T01:37:51.189Z,75.29
2019-04-05T01:38:51.218Z,75.09
2019-04-05T01:39:51.193Z,74.88
2019-04-05T01:40:51.137Z,74.88
2019-04-05T01:41:51.119Z,74.63
2019-04-05T01:42:51.104Z,74.57
2019-04-05T01:43:51.144Z,74.57
2019-04-05T01:44:51.993Z,74.43
2019-04-05T01:45:53.854Z,74.26
2019-04-05T01:46:51.057Z,74.32
2019-04-05T01:47:51.099Z,74.36
2019-04-05T01:48:51.037Z,74.26
2019-04-05T01:49:51.067Z,74.57
2019-04-05T01:50:51.028Z,74.53
2019-04-05T01:51:51.027Z,74.26
2019-04-05T01:52:51.078Z,74.57
2019-04-05T01:53:50.985Z,74.77
2019-04-05T01:54:51.076Z,74.77
2019-04-05T01:55:50.979Z,74.77
2019-04-05T01:56:50.975Z,74.77
2019-04-05T01:57:50.955Z,74.77
2019-04-05T01:58:50.926Z,74.46
2019-04-05T01:59:50.981Z,74.57
2019-04-05T02:00:50.926Z,74.36
2019-04-05T02:01:50.945Z,74.36
2019-04-05T02:02:50.932Z,74.57
2019-04-05T02:03:50.885Z,74.02
2019-04-05T02:04:52.769Z,74.02
2019-04-05T02:05:50.856Z,74.22
2019-04-05T02:06:50.839Z,73.91
2019-04-05T02:07:50.838Z,74.12
2019-04-05T02:08:50.832Z,73.94
2019-04-05T02:09:50.891Z,74.15
2019-04-05T02:10:50.805Z,74.15
2019-04-05T02:11:50.805Z,73.94
2019-04-05T02:12:50.777Z,74.05
2019-04-05T02:13:50.786Z,74.26
2019-04-05T02:14:50.796Z,74.22
2019-04-05T02:15:50.813Z,73.74
2019-04-05T02:16:50.752Z,73.94
2019-04-05T02:17:50.725Z,73.94
2019-04-05T02:18:50.715Z,74.26
2019-04-05T02:19:50.696Z,74.36
2019-04-05T02:20:50.736Z,74.57
2019-04-05T02:21:50.682Z,74.15
2019-04-05T02:22:50.664Z,74.46
2019-04-05T02:23:50.694Z,74.26
2019-04-05T02:24:50.645Z,74.15
2019-04-05T02:25:50.658Z,73.94
2019-04-05T02:26:50.636Z,74.15
2019-04-05T02:27:50.621Z,73.84
2019-04-05T02:28:50.635Z,73.91
2019-04-05T02:29:50.591Z,73.50
2019-04-05T02:30:50.613Z,73.60
2019-04-05T02:31:50.565Z,73.60
2019-04-05T02:32:50.561Z,73.19
2019-04-05T02:33:50.555Z,73.39
2019-04-05T02:34:51.062Z,73.50
2019-04-05T02:35:50.529Z,73.60
2019-04-05T02:36:50.514Z,73.43
2019-04-05T02:37:50.505Z,73.74
2019-04-05T02:38:50.494Z,74.40
2019-04-05T02:39:50.531Z,74.60
2019-04-05T02:40:50.474Z,74.57
2019-04-05T02:41:50.454Z,74.26
2019-04-05T02:42:50.454Z,74.46
2019-04-05T02:43:50.473Z,74.15
2019-04-05T02:44:50.431Z,73.94
2019-04-05T02:45:50.432Z,73.74
2019-04-05T02:46:50.432Z,73.74
2019-04-05T02:47:51.860Z,73.84
2019-04-05T02:48:50.381Z,73.94
2019-04-05T02:49:50.374Z,73.94
2019-04-05T02:50:50.362Z,73.94
2019-04-05T02:51:50.395Z,73.84
2019-04-05T02:52:50.392Z,74.46
2019-04-05T02:53:50.380Z,74.36
2019-04-05T02:54:50.321Z,73.94
2019-04-05T02:55:50.313Z,73.74
2019-04-05T02:56:50.318Z,73.84
2019-04-05T02:57:50.294Z,73.71
2019-04-05T02:58:50.307Z,73.60
2019-04-05T02:59:50.303Z,73.39
2019-04-05T03:00:50.261Z,73.60
2019-04-05T03:01:50.241Z,73.60
2019-04-05T03:02:50.251Z,73.53
2019-04-05T03:03:50.227Z,73.84
2019-04-05T03:04:50.261Z,73.84
2019-04-05T03:05:50.198Z,73.63
2019-04-05T03:06:50.182Z,73.94
2019-04-05T03:07:50.180Z,74.05
2019-04-05T03:08:50.161Z,73.63
2019-04-05T03:09:50.217Z,73.84
2019-04-05T03:10:50.144Z,73.74
2019-04-05T03:11:50.133Z,73.74
2019-04-05T03:12:50.151Z,73.32
2019-04-05T03:13:50.184Z,73.39
2019-04-05T03:14:50.155Z,73.53
2019-04-05T03:15:50.100Z,73.50
2019-04-05T03:16:50.084Z,73.63
2019-04-05T03:17:50.091Z,73.71
2019-04-05T03:18:50.147Z,73.74
2019-04-05T03:19:50.084Z,73.53
2019-04-05T03:20:50.067Z,73.84
2019-04-05T03:21:50.029Z,73.60
2019-04-05T03:22:50.019Z,73.71
2019-04-05T03:23:50.068Z,73.71
2019-04-05T03:24:50.003Z,73.91
2019-04-05T03:25:50.012Z,73.50
2019-04-05T03:26:50.001Z,73.39
2019-04-05T03:27:49.994Z,73.50
2019-04-05T03:28:49.989Z,73.39
2019-04-05T03:29:49.930Z,73.50
2019-04-05T03:30:49.970Z,73.08
2019-04-05T03:31:49.926Z,73.29
2019-04-05T03:32:49.951Z,73.08
2019-04-05T03:33:49.934Z,73.19
2019-04-05T03:34:49.924Z,73.08
2019-04-05T03:35:49.873Z,73.29
2019-04-05T03:36:51.640Z,73.29
2019-04-05T03:37:49.848Z,73.39
2019-04-05T03:38:49.845Z,73.39
2019-04-05T03:39:49.848Z,73.60
2019-04-05T03:40:49.817Z,73.53
2019-04-05T03:41:49.810Z,74.15
2019-04-05T03:42:49.803Z,74.05
2019-04-05T03:43:49.801Z,74.36
2019-04-05T03:44:49.815Z,74.15
2019-04-05T03:45:49.790Z,73.94
2019-04-05T03:46:57.083Z,73.74
2019-04-05T03:47:50.741Z,73.84
2019-04-05T03:48:49.758Z,73.74
2019-04-05T03:49:49.760Z,73.74
2019-04-05T03:50:49.747Z,73.84
2019-04-05T03:51:49.707Z,73.94
2019-04-05T03:52:49.702Z,73.94
2019-04-05T03:53:49.691Z,73.84
2019-04-05T03:54:49.659Z,73.74
2019-04-05T03:55:49.688Z,73.63
2019-04-05T03:56:49.647Z,73.84
2019-04-05T03:57:49.648Z,73.53
2019-04-05T03:58:49.634Z,73.53
2019-04-05T03:59:49.656Z,73.63
2019-04-05T04:00:49.613Z,73.74
2019-04-05T04:01:49.618Z,73.74
2019-04-05T04:02:49.578Z,73.84
2019-04-05T04:03:49.571Z,73.84
2019-04-05T04:04:49.598Z,73.84
2019-04-05T04:05:49.543Z,73.81
2019-04-05T04:06:49.569Z,73.71
2019-04-05T04:07:49.536Z,73.81
2019-04-05T04:08:49.536Z,73.60
2019-04-05T04:09:49.554Z,73.39
2019-04-05T04:10:49.485Z,73.19
2019-04-05T04:11:49.476Z,73.29
2019-04-05T04:12:49.475Z,72.98
2019-04-05T04:13:49.461Z,73.19
2019-04-05T04:14:49.478Z,73.39
2019-04-05T04:15:49.437Z,73.39
2019-04-05T04:16:49.447Z,73.29
2019-04-05T04:17:49.415Z,73.71
2019-04-05T04:18:49.426Z,73.29
2019-04-05T04:19:49.384Z,73.19
2019-04-05T04:20:49.386Z,73.19
2019-04-05T04:21:49.380Z,73.19
2019-04-05T04:22:49.400Z,73.19
2019-04-05T04:23:49.393Z,73.08
2019-04-05T04:24:49.362Z,73.08
2019-04-05T04:25:49.335Z,73.08
2019-04-05T04:26:49.333Z,73.08
2019-04-05T04:27:49.316Z,73.19
2019-04-05T04:28:49.342Z,73.08
2019-04-05T04:29:49.305Z,72.88
2019-04-05T04:30:49.322Z,72.88
2019-04-05T04:31:49.313Z,72.88
2019-04-05T04:32:49.249Z,72.98
2019-04-05T04:33:49.378Z,72.98
2019-04-05T04:34:49.224Z,73.08
2019-04-05T04:35:49.242Z,73.39
2019-04-05T04:36:49.226Z,73.29
2019-04-05T04:37:49.197Z,73.53
2019-04-05T04:38:49.263Z,73.74
2019-04-05T04:39:49.173Z,73.53
2019-04-05T04:40:49.167Z,73.53
2019-04-05T04:41:49.172Z,73.63
2019-04-05T04:42:49.143Z,74.15
2019-04-05T04:43:49.175Z,74.26
2019-04-05T04:44:49.156Z,74.46
2019-04-05T04:45:49.114Z,74.67
2019-04-05T04:46:49.097Z,74.05
2019-04-05T04:47:49.119Z,73.94
2019-04-05T04:48:49.112Z,74.05
2019-04-05T04:49:49.108Z,74.05
2019-04-05T04:50:49.071Z,74.36
2019-04-05T04:51:49.053Z,74.46
2019-04-05T04:52:49.050Z,74.57
2019-04-05T04:53:49.071Z,74.88
2019-04-05T04:54:49.071Z,74.98
2019-04-05T04:55:49.004Z,74.98
2019-04-05T04:56:49.016Z,75.09
2019-04-05T04:57:48.991Z,74.88
2019-04-05T04:58:49.086Z,75.40
2019-04-05T04:59:48.991Z,74.98
2019-04-05T05:00:48.941Z,74.98
2019-04-05T05:01:48.948Z,74.98
2019-04-05T05:02:48.961Z,75.29
2019-04-05T05:03:48.922Z,75.50
2019-04-05T05:04:48.902Z,75.60
2019-04-05T05:05:48.931Z,75.40
2019-04-05T05:06:48.880Z,75.09
2019-04-05T05:07:48.901Z,75.40
2019-04-05T05:08:48.857Z,75.71
2019-04-05T05:09:48.868Z,75.81
2019-04-05T05:10:48.845Z,76.12
2019-04-05T05:11:48.862Z,76.02
2019-04-05T05:12:48.811Z,76.23
2019-04-05T05:13:48.800Z,76.12
2019-04-05T05:14:48.799Z,76.02
2019-04-05T05:15:48.779Z,75.92
2019-04-05T05:16:48.814Z,75.92
2019-04-05T05:17:58.025Z,75.50
2019-04-05T05:18:49.780Z,75.50
2019-04-05T05:19:48.750Z,75.71
2019-04-05T05:20:48.777Z,75.92
2019-04-05T05:21:48.748Z,75.50
2019-04-05T05:22:48.705Z,75.71
2019-04-05T05:23:48.732Z,75.60
2019-04-05T05:24:48.678Z,75.60
2019-04-05T05:25:48.727Z,75.60
2019-04-05T05:26:48.666Z,75.50
2019-04-05T05:27:48.647Z,75.26
2019-04-05T05:28:48.694Z,75.26
2019-04-05T05:29:48.650Z,75.36
2019-04-05T05:30:48.638Z,75.78
2019-04-05T05:31:48.638Z,75.46
2019-04-05T05:32:48.624Z,75.67
2019-04-05T05:33:48.667Z,75.67
2019-04-05T05:35:01.144Z,75.88
2019-04-05T05:35:49.561Z,75.98
2019-04-05T05:36:48.550Z,76.50
2019-04-05T05:37:48.542Z,77.26
2019-04-05T05:38:48.529Z,77.15
2019-04-05T05:39:48.556Z,77.36
2019-04-05T05:40:48.551Z,77.26
2019-04-05T05:41:48.520Z,77.26
2019-04-05T05:42:48.494Z,76.95
2019-04-05T05:43:48.476Z,77.15
2019-04-05T05:44:48.497Z,77.05
2019-04-05T05:45:48.468Z,77.36
2019-04-05T05:46:48.463Z,77.47
2019-04-05T05:47:52.238Z,77.78
2019-04-05T05:48:48.420Z,77.47
2019-04-05T05:49:48.447Z,77.78
2019-04-05T05:50:48.438Z,77.98
2019-04-05T05:51:48.381Z,78.30
2019-04-05T05:52:48.387Z,78.30
2019-04-05T05:53:48.356Z,78.40
2019-04-05T05:54:48.360Z,78.61
2019-04-05T05:55:48.436Z,78.30
2019-04-05T05:56:48.359Z,78.30
2019-04-05T05:57:48.324Z,78.19
2019-04-05T05:58:48.432Z,78.30
2019-04-05T05:59:48.345Z,78.50
2019-04-05T06:00:48.336Z,78.50
2019-04-05T06:01:48.276Z,78.61
2019-04-05T06:02:48.678Z,78.81
2019-04-05T06:03:48.256Z,78.81
2019-04-05T06:04:48.265Z,79.02
2019-04-05T06:05:48.255Z,79.13
2019-04-05T06:06:48.303Z,79.23
2019-04-05T06:07:48.226Z,79.23
2019-04-05T06:08:48.238Z,79.13
2019-04-05T06:09:48.199Z,78.88
2019-04-05T06:10:48.227Z,78.67
2019-04-05T06:11:48.169Z,78.67
2019-04-05T06:12:48.155Z,79.19
2019-04-05T06:13:48.160Z,79.02
2019-04-05T06:14:48.153Z,79.33
2019-04-05T06:15:48.156Z,79.74
2019-04-05T06:16:48.135Z,79.74
2019-04-05T06:17:48.103Z,79.74
2019-04-05T06:18:48.610Z,79.95
2019-04-05T06:19:48.083Z,80.05
2019-04-05T06:20:48.084Z,80.05
2019-04-05T06:21:48.083Z,80.26
2019-04-05T06:22:48.143Z,80.57
2019-04-05T06:23:48.038Z,80.57
2019-04-05T06:24:48.028Z,80.36
2019-04-05T06:25:48.034Z,80.26
2019-04-05T06:26:48.004Z,80.43
2019-04-05T06:27:48.022Z,80.85
2019-04-05T06:28:48.018Z,81.37
2019-04-05T06:29:47.964Z,80.43
2019-04-05T06:30:48.715Z,80.95
2019-04-05T06:31:47.952Z,81.37
2019-04-05T06:32:47.967Z,80.95
2019-04-05T06:33:47.928Z,81.74
2019-04-05T06:34:47.914Z,82.15
2019-04-05T06:35:47.922Z,82.88
2019-04-05T06:36:50.976Z,81.70
2019-04-05T06:37:47.893Z,80.57
2019-04-05T06:38:47.863Z,80.05
2019-04-05T06:39:47.892Z,79.12
2019-04-05T06:40:47.859Z,79.53
2019-04-05T06:41:47.843Z,80.29
2019-04-05T06:42:47.824Z,80.29
2019-04-05T06:43:47.885Z,80.60
2019-04-05T06:44:47.806Z,81.02
2019-04-05T06:45:47.918Z,80.60
2019-04-05T06:46:47.791Z,80.50
2019-04-05T06:47:47.799Z,80.60
2019-04-05T06:48:47.762Z,81.19
2019-04-05T06:49:47.787Z,81.60
2019-04-05T06:50:47.931Z,81.81
2019-04-05T06:51:47.770Z,81.49
2019-04-05T06:52:47.718Z,81.39
2019-04-05T06:53:47.712Z,81.02
2019-04-05T06:54:47.691Z,81.12
2019-04-05T06:55:47.698Z,81.64
2019-04-05T06:56:47.701Z,82.57
2019-04-05T06:57:47.701Z,82.01
2019-04-05T06:58:47.711Z,81.19
2019-04-05T06:59:47.652Z,81.19
2019-04-05T07:00:57.065Z,80.98
2019-04-05T07:01:48.739Z,81.81
2019-04-05T07:02:47.612Z,82.01
2019-04-05T07:03:47.590Z,81.29
2019-04-05T07:04:47.582Z,81.29
2019-04-05T07:05:47.600Z,80.67
2019-04-05T07:06:47.568Z,80.91
2019-04-05T07:07:47.597Z,82.05
2019-04-05T07:08:53.671Z,82.05
2019-04-05T07:09:48.538Z,82.36
2019-04-05T07:10:47.551Z,82.78
2019-04-05T07:11:47.510Z,83.19
2019-04-05T07:12:47.778Z,83.71
2019-04-05T07:13:47.491Z,83.29
2019-04-05T07:14:47.472Z,83.50
2019-04-05T07:15:47.467Z,83.29
2019-04-05T07:16:47.475Z,83.36
2019-04-05T07:17:47.492Z,83.25
2019-04-05T07:18:47.437Z,83.46
2019-04-05T07:19:47.481Z,82.95
2019-04-05T07:20:47.414Z,83.25
2019-04-05T07:21:47.408Z,83.25
2019-04-05T07:22:47.431Z,81.39
2019-04-05T07:23:47.421Z,80.77
2019-04-05T07:24:49.535Z,82.32
2019-04-05T07:25:47.361Z,82.32
2019-04-05T07:26:47.349Z,82.43
2019-04-05T07:27:47.329Z,82.74
2019-04-05T07:28:47.338Z,82.43
2019-04-05T07:29:47.310Z,82.95
2019-04-05T07:30:47.317Z,83.77
2019-04-05T07:31:47.331Z,83.25
2019-04-05T07:32:47.277Z,83.77
2019-04-05T07:33:47.318Z,82.84
2019-04-05T07:34:47.280Z,83.25
2019-04-05T07:35:47.259Z,83.05
2019-04-05T07:36:47.236Z,82.64
2019-04-05T07:37:47.218Z,83.36
2019-04-05T07:38:47.245Z,83.36
2019-04-05T07:39:47.237Z,82.74
2019-04-05T07:40:47.232Z,82.95
2019-04-05T07:41:47.179Z,82.74
2019-04-05T07:42:47.167Z,82.29
2019-04-05T07:43:47.156Z,82.29
2019-04-05T07:44:47.144Z,81.25
2019-04-05T07:45:47.171Z,81.35
2019-04-05T07:46:47.174Z,81.67
2019-04-05T07:47:47.115Z,81.67
2019-04-05T07:48:47.099Z,81.67
2019-04-05T07:49:47.185Z,81.56
2019-04-05T07:50:47.083Z,81.35
2019-04-05T07:51:47.075Z,80.53
2019-04-05T07:52:47.109Z,80.36
2019-04-05T07:53:47.049Z,81.49
2019-04-05T07:54:47.078Z,82.26
2019-04-05T07:55:47.086Z,82.78
2019-04-05T07:56:47.026Z,83.71
2019-04-05T07:57:47.051Z,83.91
2019-04-05T07:58:47.081Z,84.01
2019-04-05T07:59:47.100Z,83.91
2019-04-05T08:00:47.013Z,83.61
2019-04-05T08:01:46.997Z,83.50
2019-04-05T08:02:46.947Z,83.40
2019-04-05T08:03:46.956Z,82.78
2019-04-05T08:04:46.955Z,82.78
2019-04-05T08:05:46.972Z,82.88
2019-04-05T08:06:46.947Z,83.29
2019-04-05T08:07:46.946Z,83.50
2019-04-05T08:08:46.903Z,83.61
2019-04-05T08:09:46.875Z,83.40
2019-04-05T08:10:46.906Z,83.50
2019-04-05T08:11:46.891Z,84.01
2019-04-05T08:12:46.845Z,83.29
2019-04-05T08:13:46.835Z,82.26
2019-04-05T08:14:46.835Z,82.57
2019-04-05T08:15:46.895Z,82.36
2019-04-05T08:16:46.807Z,82.46
2019-04-05T08:17:46.791Z,82.78
2019-04-05T08:18:57.031Z,82.26
2019-04-05T08:19:47.764Z,81.64
2019-04-05T08:20:46.783Z,81.74
2019-04-05T08:21:46.805Z,82.26
2019-04-05T08:22:46.734Z,82.36
2019-04-05T08:23:46.795Z,81.54
2019-04-05T08:24:46.715Z,81.12
2019-04-05T08:25:46.723Z,81.54
2019-04-05T08:26:46.747Z,82.15
2019-04-05T08:27:46.687Z,82.36
2019-04-05T08:28:46.675Z,82.78
2019-04-05T08:29:46.675Z,82.67
2019-04-05T08:30:46.645Z,82.67
2019-04-05T08:31:46.693Z,82.36
2019-04-05T08:32:46.641Z,82.46
2019-04-05T08:33:46.615Z,82.36
2019-04-05T08:34:46.627Z,82.26
2019-04-05T08:35:46.616Z,81.49
2019-04-05T08:36:46.616Z,80.88
2019-04-05T08:37:46.580Z,80.77
2019-04-05T08:38:46.643Z,80.98
2019-04-05T08:39:46.554Z,80.88
2019-04-05T08:40:46.598Z,80.67
2019-04-05T08:41:46.542Z,80.77
2019-04-05T08:42:46.540Z,80.05
2019-04-05T08:43:47.383Z,79.94
2019-04-05T08:44:46.513Z,79.84
2019-04-05T08:45:46.558Z,79.84
2019-04-05T08:46:46.486Z,79.63
2019-04-05T08:47:46.550Z,79.53
2019-04-05T08:48:46.451Z,79.43
2019-04-05T08:49:46.449Z,79.53
2019-04-05T08:50:46.473Z,79.53
2019-04-05T08:51:46.435Z,79.33
2019-04-05T08:52:46.413Z,78.77
2019-04-05T08:53:46.413Z,78.25
2019-04-05T08:54:46.397Z,78.25
2019-04-05T08:55:46.412Z,78.36
2019-04-05T08:56:46.383Z,78.36
2019-04-05T08:57:48.123Z,78.05
2019-04-05T08:58:46.354Z,77.64
2019-04-05T08:59:46.381Z,77.64
2019-04-05T09:00:46.337Z,77.74
2019-04-05T09:01:46.343Z,77.64
2019-04-05T09:02:46.398Z,77.53
2019-04-05T09:03:46.286Z,77.64
2019-04-05T09:04:46.321Z,77.94
2019-04-05T09:05:46.275Z,76.18
2019-04-05T09:06:46.261Z,75.36
2019-04-05T09:07:46.231Z,75.67
2019-04-05T09:08:46.282Z,75.57
2019-04-05T09:09:46.231Z,75.78
2019-04-05T09:10:46.211Z,75.57
2019-04-05T09:11:46.223Z,75.88
2019-04-05T09:12:46.182Z,76.29
2019-04-05T09:13:46.212Z,75.98
2019-04-05T09:14:46.159Z,75.98
2019-04-05T09:15:46.212Z,76.29
2019-04-05T09:16:46.171Z,76.39
2019-04-05T09:17:46.153Z,76.39
2019-04-05T09:18:49.204Z,76.50
2019-04-05T09:19:46.102Z,76.60
2019-04-05T09:20:46.147Z,76.18
2019-04-05T09:21:46.110Z,76.39
2019-04-05T09:22:46.087Z,75.15
2019-04-05T09:23:46.105Z,74.95
2019-04-05T09:24:46.092Z,75.15
2019-04-05T09:25:46.078Z,75.46
2019-04-05T09:26:46.092Z,75.84
2019-04-05T09:27:46.022Z,75.01
2019-04-05T09:28:46.053Z,73.26
2019-04-05T09:29:46.063Z,73.57
2019-04-05T09:30:46.021Z,74.19
2019-04-05T09:31:45.971Z,74.60
2019-04-05T09:32:45.978Z,74.60
2019-04-05T09:33:45.957Z,74.71
2019-04-05T09:34:46.081Z,74.60
2019-04-05T09:35:46.011Z,74.81
2019-04-05T09:36:45.921Z,74.08
2019-04-05T09:37:45.908Z,73.77
2019-04-05T09:38:46.039Z,74.08
2019-04-05T09:39:45.952Z,74.71
2019-04-05T09:40:45.924Z,74.19
2019-04-05T09:41:45.876Z,74.19
2019-04-05T09:42:45.858Z,74.50
2019-04-05T09:43:45.960Z,74.19
2019-04-05T09:44:45.893Z,73.95
2019-04-05T09:45:45.833Z,72.71
2019-04-05T09:46:48.244Z,72.81
2019-04-05T09:47:45.826Z,72.30
2019-04-05T09:48:45.816Z,72.19
2019-04-05T09:49:45.789Z,71.88
2019-04-05T09:50:45.811Z,72.64
2019-04-05T09:51:46.222Z,72.64
2019-04-05T09:52:46.274Z,72.88
2019-04-05T09:53:46.297Z,72.95
2019-04-05T09:54:46.246Z,73.16
2019-04-05T09:55:46.261Z,73.05
2019-04-05T09:56:45.846Z,73.02
2019-04-05T09:57:45.759Z,73.33
2019-04-05T09:58:45.841Z,73.12
2019-04-05T09:59:45.701Z,72.71
2019-04-05T10:00:45.980Z,72.81
2019-04-05T10:01:46.018Z,72.91
2019-04-05T10:02:46.244Z,72.61
2019-04-05T10:03:46.104Z,72.61
2019-04-05T10:04:46.142Z,72.61
2019-04-05T10:05:46.150Z,72.61
2019-04-05T10:06:46.305Z,72.81
2019-04-05T10:07:54.839Z,72.91
2019-04-05T10:08:46.767Z,73.22
2019-04-05T10:09:45.572Z,73.74
2019-04-05T10:10:45.599Z,74.05
2019-04-05T10:11:46.337Z,73.85
2019-04-05T10:12:46.128Z,73.64
2019-04-05T10:13:45.509Z,72.99
2019-04-05T10:14:45.507Z,72.88
2019-04-05T10:15:45.500Z,72.88
2019-04-05T10:16:45.509Z,73.29
2019-04-05T10:17:45.514Z,73.29
2019-04-05T10:18:45.467Z,72.36
2019-04-05T10:19:50.279Z,72.36
2019-04-05T10:20:46.434Z,73.33
2019-04-05T10:21:45.487Z,73.85
2019-04-05T10:22:45.406Z,74.36
2019-04-05T10:23:45.483Z,73.85
2019-04-05T10:24:45.417Z,73.54
2019-04-05T10:25:45.397Z,73.19
2019-04-05T10:26:45.973Z,73.39
2019-04-05T10:27:45.405Z,72.88
2019-04-05T10:28:45.406Z,72.88
2019-04-05T10:29:45.359Z,72.67
2019-04-05T10:30:45.348Z,73.19
2019-04-05T10:31:45.326Z,73.60
2019-04-05T10:32:46.188Z,73.09
2019-04-05T10:33:45.333Z,72.57
2019-04-05T10:34:45.333Z,72.44
2019-04-05T10:35:45.275Z,72.13
2019-04-05T10:36:45.278Z,71.92
2019-04-05T10:37:45.255Z,71.20
2019-04-05T10:38:45.275Z,70.89
2019-04-05T10:39:45.237Z,71.20
2019-04-05T10:40:45.249Z,71.54
2019-04-05T10:41:45.247Z,71.85
2019-04-05T10:42:45.194Z,71.20
2019-04-05T10:43:45.274Z,71.41
2019-04-05T10:44:45.178Z,71.09
2019-04-05T10:45:45.165Z,71.20
2019-04-05T10:46:45.884Z,71.09
2019-04-05T10:47:45.135Z,70.89
2019-04-05T10:48:45.184Z,70.57
2019-04-05T10:49:45.125Z,70.54
2019-04-05T10:50:45.107Z,70.96
2019-04-05T10:51:45.125Z,70.03
2019-04-05T10:52:45.117Z,68.96
2019-04-05T10:53:45.114Z,68.76
2019-04-05T10:54:45.086Z,69.17
2019-04-05T10:55:45.111Z,68.86
2019-04-05T10:56:45.087Z,68.14
2019-04-05T10:57:46.525Z,68.07
2019-04-05T10:58:45.515Z,68.38
2019-04-05T10:59:45.731Z,67.03
2019-04-05T11:00:47.057Z,67.17
2019-04-05T11:01:45.748Z,67.58
2019-04-05T11:02:45.836Z,67.76
2019-04-05T11:03:45.554Z,67.69
2019-04-05T11:04:45.568Z,67.90
2019-04-05T11:05:47.783Z,68.41
2019-04-05T11:06:45.563Z,68.38
2019-04-05T11:07:45.579Z,67.97
2019-04-05T11:08:45.509Z,66.94
2019-04-05T11:09:45.113Z,66.31
2019-04-05T11:10:44.925Z,66.07
2019-04-05T11:11:44.886Z,66.48
2019-04-05T11:12:44.896Z,66.89
2019-04-05T11:13:44.994Z,66.27
2019-04-05T11:14:44.855Z,66.69
2019-04-05T11:15:45.000Z,66.45
2019-04-05T11:16:57.534Z,66.86
2019-04-05T11:17:45.955Z,66.35
2019-04-05T11:18:45.174Z,66.79
2019-04-05T11:19:44.883Z,67.51
2019-04-05T11:20:44.837Z,67.30
2019-04-05T11:21:47.889Z,67.41
2019-04-05T11:22:46.620Z,67.41
2019-04-05T11:23:44.807Z,67.38
2019-04-05T11:24:44.743Z,67.48
2019-04-05T11:25:44.733Z,66.73
2019-04-05T11:26:44.744Z,66.52
2019-04-05T11:27:44.735Z,66.70
2019-04-05T11:28:44.702Z,66.70
2019-04-05T11:29:44.694Z,65.84
2019-04-05T11:30:44.712Z,65.22
2019-04-05T11:31:56.357Z,65.67
2019-04-05T11:32:45.662Z,66.08
2019-04-05T11:33:44.697Z,66.15
2019-04-05T11:34:44.622Z,66.05
2019-04-05T11:35:44.657Z,65.64
2019-04-05T11:36:44.615Z,64.92
2019-04-05T11:37:44.592Z,65.12
2019-04-05T11:38:44.627Z,65.22
2019-04-05T11:39:46.407Z,65.43
2019-04-05T11:40:44.564Z,66.18
2019-04-05T11:41:44.560Z,66.83
2019-04-05T11:42:44.581Z,67.14
2019-04-05T11:43:44.545Z,67.21
2019-04-05T11:44:44.560Z,66.60
2019-04-05T11:45:44.562Z,66.15
2019-04-05T11:46:44.520Z,66.05
2019-04-05T11:47:44.491Z,66.05
2019-04-05T11:48:44.491Z,65.12
2019-04-05T11:49:44.501Z,65.40
2019-04-05T11:50:44.464Z,65.09
2019-04-05T11:51:44.453Z,64.92
2019-04-05T11:52:44.476Z,65.77
2019-04-05T11:53:44.431Z,66.39
2019-04-05T11:54:45.976Z,65.98
2019-04-05T11:55:46.595Z,65.95
2019-04-05T11:56:44.381Z,65.98
2019-04-05T11:57:44.380Z,66.18
2019-04-05T11:58:44.371Z,66.39
2019-04-05T11:59:44.393Z,66.39
2019-04-05T12:00:44.410Z,66.28
2019-04-05T12:01:44.420Z,66.70
2019-04-05T12:02:44.327Z,66.70
2019-04-05T12:03:44.324Z,66.77
2019-04-05T12:04:44.334Z,67.29
2019-04-05T12:05:44.344Z,66.77
2019-04-05T12:06:44.272Z,66.91
2019-04-05T12:07:44.270Z,66.80
2019-04-05T12:08:44.273Z,67.45
2019-04-05T12:09:45.962Z,67.63
2019-04-05T12:10:44.277Z,67.52
2019-04-05T12:11:46.401Z,67.08
2019-04-05T12:12:44.221Z,66.67
2019-04-05T12:13:44.213Z,66.15
2019-04-05T12:14:45.048Z,66.28
2019-04-05T12:15:44.239Z,67.11
2019-04-05T12:16:44.174Z,66.94
2019-04-05T12:17:44.162Z,67.24
2019-04-05T12:18:44.150Z,67.55
2019-04-05T12:19:44.129Z,67.86
2019-04-05T12:20:52.049Z,67.32
2019-04-05T12:21:45.133Z,66.56
2019-04-05T12:22:44.130Z,66.15
2019-04-05T12:23:44.091Z,65.92
2019-04-05T12:24:44.080Z,65.81
2019-04-05T12:25:44.102Z,65.68
2019-04-05T12:26:44.090Z,64.93
2019-04-05T12:27:44.041Z,64.31
2019-04-05T12:28:44.049Z,64.21
2019-04-05T12:29:44.020Z,64.21
2019-04-05T12:30:45.955Z,64.00
2019-04-05T12:31:44.046Z,63.59
2019-04-05T12:32:43.990Z,63.93
2019-04-05T12:33:46.771Z,64.68
2019-04-05T12:34:43.985Z,65.09
2019-04-05T12:35:44.034Z,65.37
2019-04-05T12:36:44.008Z,64.96
2019-04-05T12:37:50.017Z,65.16
2019-04-05T12:38:44.923Z,64.96
2019-04-05T12:39:43.921Z,64.34
2019-04-05T12:40:44.200Z,64.34
2019-04-05T12:41:45.032Z,64.51
2019-04-05T12:42:43.970Z,64.00
2019-04-05T12:43:44.619Z,64.24
2019-04-05T12:44:45.117Z,64.86
2019-04-05T12:45:44.750Z,64.62
2019-04-05T12:46:45.844Z,64.34
2019-04-05T12:47:45.614Z,65.06
2019-04-05T12:48:46.231Z,64.96
2019-04-05T12:49:45.475Z,65.03
2019-04-05T12:50:44.903Z,64.00
2019-04-05T12:51:45.583Z,63.76
2019-04-05T12:52:43.823Z,63.18